sensor_id;sensor_type;location;lat;lon;timestamp;pressure;altitude;pressure_sealevel;temperature;humidity
68822;BME280;55834;50.870;4.606;2022-07-21T00:00:44;101086.56;;;19.09;55.82
68822;BME280;55834;50.870;4.606;2022-07-21T00:03:10;101095.13;;;19.00;56.50
68822;BME280;55834;50.870;4.606;2022-07-21T00:05:35;101093.19;;;18.88;56.96
68822;BME280;55834;50.870;4.606;2022-07-21T00:08:01;101079.00;;;18.86;56.89
68822;BME280;55834;50.870;4.606;2022-07-21T00:10:27;101084.22;;;18.73;57.65
68822;BME280;55834;50.870;4.606;2022-07-21T00:12:54;101083.44;;;18.71;57.63
68822;BME280;55834;50.870;4.606;2022-07-21T00:15:21;101088.00;;;18.85;56.26
68822;BME280;55834;50.870;4.606;2022-07-21T00:17:47;101084.66;;;18.81;57.17
68822;BME280;55834;50.870;4.606;2022-07-21T00:20:14;101091.63;;;18.68;57.86
68822;BME280;55834;50.870;4.606;2022-07-21T00:22:40;101088.19;;;18.50;58.61
68822;BME280;55834;50.870;4.606;2022-07-21T00:25:06;101090.59;;;18.55;58.42
68822;BME280;55834;50.870;4.606;2022-07-21T00:27:32;101088.19;;;18.50;58.94
68822;BME280;55834;50.870;4.606;2022-07-21T00:29:57;101088.63;;;18.58;59.02
68822;BME280;55834;50.870;4.606;2022-07-21T00:32:23;101088.75;;;18.39;58.98
68822;BME280;55834;50.870;4.606;2022-07-21T00:34:48;101090.22;;;18.45;59.46
68822;BME280;55834;50.870;4.606;2022-07-21T00:37:13;101087.06;;;18.70;58.51
68822;BME280;55834;50.870;4.606;2022-07-21T00:39:39;101085.34;;;18.53;59.18
68822;BME280;55834;50.870;4.606;2022-07-21T00:42:04;101081.28;;;18.62;58.86
68822;BME280;55834;50.870;4.606;2022-07-21T00:44:31;101085.06;;;18.74;57.69
68822;BME280;55834;50.870;4.606;2022-07-21T00:46:57;101081.97;;;18.65;58.18
68822;BME280;55834;50.870;4.606;2022-07-21T00:49:23;101085.69;;;18.63;58.54
68822;BME280;55834;50.870;4.606;2022-07-21T00:51:48;101093.63;;;18.64;58.10
68822;BME280;55834;50.870;4.606;2022-07-21T00:54:18;101090.97;;;18.64;57.85
68822;BME280;55834;50.870;4.606;2022-07-21T00:56:45;101090.31;;;18.43;59.66
68822;BME280;55834;50.870;4.606;2022-07-21T00:59:11;101090.53;;;18.56;58.20
68822;BME280;55834;50.870;4.606;2022-07-21T01:01:37;101091.31;;;18.09;59.76
68822;BME280;55834;50.870;4.606;2022-07-21T01:04:03;101085.66;;;18.47;59.47
68822;BME280;55834;50.870;4.606;2022-07-21T01:06:28;101084.03;;;18.44;58.82
68822;BME280;55834;50.870;4.606;2022-07-21T01:08:54;101086.88;;;18.57;57.90
68822;BME280;55834;50.870;4.606;2022-07-21T01:11:21;101086.19;;;18.38;58.92
68822;BME280;55834;50.870;4.606;2022-07-21T01:13:48;101086.81;;;18.59;57.93
68822;BME280;55834;50.870;4.606;2022-07-21T01:16:14;101086.72;;;18.60;57.77
68822;BME280;55834;50.870;4.606;2022-07-21T01:18:40;101082.41;;;18.58;57.37
68822;BME280;55834;50.870;4.606;2022-07-21T01:21:30;101084.44;;;18.37;58.11
68822;BME280;55834;50.870;4.606;2022-07-21T01:23:56;101085.44;;;18.67;57.73
68822;BME280;55834;50.870;4.606;2022-07-21T01:26:22;101079.16;;;18.53;57.63
68822;BME280;55834;50.870;4.606;2022-07-21T01:28:47;101074.63;;;18.69;57.25
68822;BME280;55834;50.870;4.606;2022-07-21T01:31:12;101078.91;;;18.40;58.29
68822;BME280;55834;50.870;4.606;2022-07-21T01:33:38;101078.94;;;18.24;57.97
68822;BME280;55834;50.870;4.606;2022-07-21T01:36:03;101082.97;;;18.31;58.06
68822;BME280;55834;50.870;4.606;2022-07-21T01:38:29;101084.34;;;18.22;58.28
68822;BME280;55834;50.870;4.606;2022-07-21T01:41:13;101092.59;;;18.51;57.55
68822;BME280;55834;50.870;4.606;2022-07-21T01:44:02;101095.53;;;18.62;57.09
68822;BME280;55834;50.870;4.606;2022-07-21T01:46:34;101104.91;;;18.69;56.61
68822;BME280;55834;50.870;4.606;2022-07-21T01:48:59;101110.69;;;18.78;56.22
68822;BME280;55834;50.870;4.606;2022-07-21T01:51:25;101107.34;;;18.74;56.17
68822;BME280;55834;50.870;4.606;2022-07-21T01:53:51;101107.94;;;18.63;56.79
68822;BME280;55834;50.870;4.606;2022-07-21T01:56:22;101116.38;;;18.71;56.37
68822;BME280;55834;50.870;4.606;2022-07-21T01:58:48;101109.25;;;18.56;56.98
68822;BME280;55834;50.870;4.606;2022-07-21T02:01:18;101116.91;;;18.62;56.77
68822;BME280;55834;50.870;4.606;2022-07-21T02:03:44;101114.59;;;18.56;57.14
68822;BME280;55834;50.870;4.606;2022-07-21T02:06:10;101114.84;;;18.67;56.91
68822;BME280;55834;50.870;4.606;2022-07-21T02:08:35;101109.03;;;18.75;56.25
68822;BME280;55834;50.870;4.606;2022-07-21T02:11:01;101114.75;;;18.69;56.49
68822;BME280;55834;50.870;4.606;2022-07-21T02:13:27;101113.88;;;18.68;57.15
68822;BME280;55834;50.870;4.606;2022-07-21T02:15:52;101112.91;;;18.38;57.92
68822;BME280;55834;50.870;4.606;2022-07-21T02:18:18;101109.41;;;18.53;57.38
68822;BME280;55834;50.870;4.606;2022-07-21T02:20:44;101108.16;;;18.43;57.65
68822;BME280;55834;50.870;4.606;2022-07-21T02:23:13;101109.13;;;18.42;58.11
68822;BME280;55834;50.870;4.606;2022-07-21T02:25:39;101109.06;;;18.59;57.63
68822;BME280;55834;50.870;4.606;2022-07-21T02:28:04;101102.41;;;18.66;56.82
68822;BME280;55834;50.870;4.606;2022-07-21T02:30:30;101102.50;;;18.65;57.36
68822;BME280;55834;50.870;4.606;2022-07-21T02:32:55;101094.84;;;18.59;57.38
68822;BME280;55834;50.870;4.606;2022-07-21T02:35:20;101092.25;;;18.57;57.77
68822;BME280;55834;50.870;4.606;2022-07-21T02:37:46;101096.59;;;18.42;58.05
68822;BME280;55834;50.870;4.606;2022-07-21T02:40:11;101085.41;;;18.36;58.37
68822;BME280;55834;50.870;4.606;2022-07-21T02:42:37;101092.50;;;18.53;58.27
68822;BME280;55834;50.870;4.606;2022-07-21T02:45:07;101092.03;;;18.44;57.69
68822;BME280;55834;50.870;4.606;2022-07-21T02:47:33;101084.41;;;18.54;57.82
68822;BME280;55834;50.870;4.606;2022-07-21T02:50:11;101077.72;;;18.30;58.08
68822;BME280;55834;50.870;4.606;2022-07-21T02:52:37;101092.75;;;18.32;58.51
68822;BME280;55834;50.870;4.606;2022-07-21T02:55:02;101084.94;;;18.43;57.76
68822;BME280;55834;50.870;4.606;2022-07-21T02:57:27;101087.63;;;18.43;57.76
68822;BME280;55834;50.870;4.606;2022-07-21T02:59:53;101084.81;;;18.46;57.65
68822;BME280;55834;50.870;4.606;2022-07-21T03:02:18;101077.34;;;18.20;58.26
68822;BME280;55834;50.870;4.606;2022-07-21T03:04:43;101076.16;;;18.10;59.26
68822;BME280;55834;50.870;4.606;2022-07-21T03:07:09;101067.41;;;17.73;59.55
68822;BME280;55834;50.870;4.606;2022-07-21T03:09:34;101069.13;;;17.91;59.27
68822;BME280;55834;50.870;4.606;2022-07-21T03:11:59;101070.53;;;17.98;59.30
68822;BME280;55834;50.870;4.606;2022-07-21T03:14:25;101063.56;;;18.12;58.18
68822;BME280;55834;50.870;4.606;2022-07-21T03:16:50;101063.81;;;18.07;58.40
68822;BME280;55834;50.870;4.606;2022-07-21T03:19:16;101054.34;;;18.17;58.01
68822;BME280;55834;50.870;4.606;2022-07-21T03:21:42;101059.25;;;18.25;57.45
68822;BME280;55834;50.870;4.606;2022-07-21T03:24:07;101060.13;;;18.10;58.21
68822;BME280;55834;50.870;4.606;2022-07-21T03:26:32;101056.31;;;17.98;58.96
68822;BME280;55834;50.870;4.606;2022-07-21T03:29:03;101059.91;;;17.97;58.73
68822;BME280;55834;50.870;4.606;2022-07-21T03:31:28;101062.97;;;18.22;58.07
68822;BME280;55834;50.870;4.606;2022-07-21T03:33:54;101055.53;;;17.96;58.47
68822;BME280;55834;50.870;4.606;2022-07-21T03:36:19;101058.06;;;18.15;58.37
68822;BME280;55834;50.870;4.606;2022-07-21T03:38:47;101060.13;;;18.10;57.99
68822;BME280;55834;50.870;4.606;2022-07-21T03:41:13;101065.53;;;17.92;58.87
68822;BME280;55834;50.870;4.606;2022-07-21T03:43:38;101062.88;;;18.08;58.35
68822;BME280;55834;50.870;4.606;2022-07-21T03:46:04;101058.75;;;18.18;58.25
68822;BME280;55834;50.870;4.606;2022-07-21T03:48:29;101058.97;;;17.98;58.51
68822;BME280;55834;50.870;4.606;2022-07-21T03:50:54;101060.41;;;17.88;58.94
68822;BME280;55834;50.870;4.606;2022-07-21T03:53:20;101065.41;;;17.43;60.52
68822;BME280;55834;50.870;4.606;2022-07-21T03:55:45;101063.59;;;17.78;59.81
68822;BME280;55834;50.870;4.606;2022-07-21T03:58:11;101060.97;;;17.59;59.56
68822;BME280;55834;50.870;4.606;2022-07-21T04:00:44;101071.75;;;17.58;60.08
68822;BME280;55834;50.870;4.606;2022-07-21T04:03:11;101077.47;;;17.85;58.99
68822;BME280;55834;50.870;4.606;2022-07-21T04:05:38;101069.63;;;17.65;59.59
68822;BME280;55834;50.870;4.606;2022-07-21T04:08:04;101076.16;;;17.76;59.35
68822;BME280;55834;50.870;4.606;2022-07-21T04:10:32;101091.84;;;17.83;59.00
68822;BME280;55834;50.870;4.606;2022-07-21T04:13:00;101088.09;;;18.02;58.57
68822;BME280;55834;50.870;4.606;2022-07-21T04:15:26;101087.19;;;18.19;58.25
68822;BME280;55834;50.870;4.606;2022-07-21T04:17:52;101096.06;;;18.20;57.58
68822;BME280;55834;50.870;4.606;2022-07-21T04:20:18;101097.81;;;17.88;59.44
68822;BME280;55834;50.870;4.606;2022-07-21T04:22:44;101093.88;;;17.95;58.55
68822;BME280;55834;50.870;4.606;2022-07-21T04:25:10;101100.66;;;17.85;59.28
68822;BME280;55834;50.870;4.606;2022-07-21T04:27:36;101097.19;;;17.48;59.77
68822;BME280;55834;50.870;4.606;2022-07-21T04:30:03;101096.94;;;17.00;62.10
68822;BME280;55834;50.870;4.606;2022-07-21T04:32:29;101101.13;;;17.58;60.05
68822;BME280;55834;50.870;4.606;2022-07-21T04:34:54;101094.94;;;17.57;60.29
68822;BME280;55834;50.870;4.606;2022-07-21T04:37:20;101086.66;;;17.62;59.53
68822;BME280;55834;50.870;4.606;2022-07-21T04:39:45;101094.78;;;17.78;59.41
68822;BME280;55834;50.870;4.606;2022-07-21T04:42:11;101094.44;;;17.84;59.02
68822;BME280;55834;50.870;4.606;2022-07-21T04:44:37;101092.91;;;17.80;59.61
68822;BME280;55834;50.870;4.606;2022-07-21T04:47:02;101098.97;;;17.99;58.67
68822;BME280;55834;50.870;4.606;2022-07-21T04:49:27;101099.97;;;17.97;58.91
68822;BME280;55834;50.870;4.606;2022-07-21T04:51:53;101092.69;;;18.00;58.88
68822;BME280;55834;50.870;4.606;2022-07-21T04:54:18;101090.31;;;18.12;58.90
68822;BME280;55834;50.870;4.606;2022-07-21T04:56:44;101100.81;;;18.15;58.76
68822;BME280;55834;50.870;4.606;2022-07-21T04:59:09;101092.34;;;18.07;58.92
68822;BME280;55834;50.870;4.606;2022-07-21T05:01:36;101099.22;;;17.95;58.72
68822;BME280;55834;50.870;4.606;2022-07-21T05:04:02;101092.59;;;18.02;59.03
68822;BME280;55834;50.870;4.606;2022-07-21T05:06:27;101093.81;;;18.12;58.58
68822;BME280;55834;50.870;4.606;2022-07-21T05:08:52;101097.56;;;17.92;59.65
68822;BME280;55834;50.870;4.606;2022-07-21T05:11:18;101093.50;;;17.68;60.11
68822;BME280;55834;50.870;4.606;2022-07-21T05:13:43;101094.63;;;17.29;61.11
68822;BME280;55834;50.870;4.606;2022-07-21T05:16:09;101091.16;;;17.79;60.25
68822;BME280;55834;50.870;4.606;2022-07-21T05:18:34;101087.13;;;18.21;58.45
68822;BME280;55834;50.870;4.606;2022-07-21T05:20:59;101097.19;;;18.16;58.75
68822;BME280;55834;50.870;4.606;2022-07-21T05:23:25;101095.13;;;18.37;58.41
68822;BME280;55834;50.870;4.606;2022-07-21T05:25:50;101091.78;;;17.84;59.73
68822;BME280;55834;50.870;4.606;2022-07-21T05:28:16;101098.88;;;18.01;59.78
68822;BME280;55834;50.870;4.606;2022-07-21T05:30:41;101096.84;;;18.22;59.92
68822;BME280;55834;50.870;4.606;2022-07-21T05:33:06;101084.94;;;18.43;58.45
68822;BME280;55834;50.870;4.606;2022-07-21T05:35:32;101083.94;;;18.30;58.26
68822;BME280;55834;50.870;4.606;2022-07-21T05:37:57;101086.97;;;17.91;60.47
68822;BME280;55834;50.870;4.606;2022-07-21T05:40:23;101094.50;;;17.83;61.63
68822;BME280;55834;50.870;4.606;2022-07-21T05:42:48;101087.44;;;17.64;60.50
68822;BME280;55834;50.870;4.606;2022-07-21T05:45:14;101091.25;;;17.60;61.23
68822;BME280;55834;50.870;4.606;2022-07-21T05:47:39;101094.53;;;17.30;61.78
68822;BME280;55834;50.870;4.606;2022-07-21T05:50:06;101095.56;;;17.63;61.04
68822;BME280;55834;50.870;4.606;2022-07-21T05:52:31;101097.56;;;17.92;60.99
68822;BME280;55834;50.870;4.606;2022-07-21T05:54:56;101092.75;;;17.99;60.64
68822;BME280;55834;50.870;4.606;2022-07-21T05:57:22;101100.03;;;17.79;60.77
68822;BME280;55834;50.870;4.606;2022-07-21T05:59:47;101103.44;;;17.99;59.72
68822;BME280;55834;50.870;4.606;2022-07-21T06:02:13;101104.34;;;18.31;59.14
68822;BME280;55834;50.870;4.606;2022-07-21T06:04:38;101104.50;;;18.12;59.58
68822;BME280;55834;50.870;4.606;2022-07-21T06:07:04;101101.50;;;17.68;61.02
68822;BME280;55834;50.870;4.606;2022-07-21T06:09:29;101102.06;;;17.92;60.07
68822;BME280;55834;50.870;4.606;2022-07-21T06:11:54;101104.66;;;17.76;60.78
68822;BME280;55834;50.870;4.606;2022-07-21T06:14:20;101112.66;;;17.93;59.92
68822;BME280;55834;50.870;4.606;2022-07-21T06:16:48;101109.66;;;17.99;60.67
68822;BME280;55834;50.870;4.606;2022-07-21T06:19:14;101109.97;;;17.93;61.02
68822;BME280;55834;50.870;4.606;2022-07-21T06:21:39;101123.03;;;17.65;61.30
68822;BME280;55834;50.870;4.606;2022-07-21T06:24:07;101124.47;;;17.54;62.00
68822;BME280;55834;50.870;4.606;2022-07-21T06:26:32;101123.97;;;17.29;63.44
68822;BME280;55834;50.870;4.606;2022-07-21T06:28:58;101123.34;;;17.58;62.81
68822;BME280;55834;50.870;4.606;2022-07-21T06:31:23;101122.63;;;17.72;62.45
68822;BME280;55834;50.870;4.606;2022-07-21T06:33:49;101121.69;;;17.91;62.22
68822;BME280;55834;50.870;4.606;2022-07-21T06:36:14;101120.28;;;17.84;62.38
68822;BME280;55834;50.870;4.606;2022-07-21T06:38:39;101126.84;;;17.94;61.77
68822;BME280;55834;50.870;4.606;2022-07-21T06:41:05;101136.50;;;17.09;63.50
68822;BME280;55834;50.870;4.606;2022-07-21T06:43:32;101132.38;;;17.39;63.83
68822;BME280;55834;50.870;4.606;2022-07-21T06:45:57;101141.50;;;17.52;63.55
68822;BME280;55834;50.870;4.606;2022-07-21T06:48:23;101140.63;;;17.69;62.69
68822;BME280;55834;50.870;4.606;2022-07-21T06:50:49;101138.91;;;17.85;62.24
68822;BME280;55834;50.870;4.606;2022-07-21T06:53:15;101147.53;;;17.55;63.07
68822;BME280;55834;50.870;4.606;2022-07-21T06:55:40;101147.47;;;17.74;63.52
68822;BME280;55834;50.870;4.606;2022-07-21T06:58:16;101148.47;;;18.07;61.54
68822;BME280;55834;50.870;4.606;2022-07-21T07:00:43;101148.72;;;17.85;62.13
68822;BME280;55834;50.870;4.606;2022-07-21T07:03:09;101155.06;;;17.65;63.15
68822;BME280;55834;50.870;4.606;2022-07-21T07:05:35;101152.97;;;17.54;63.23
68822;BME280;55834;50.870;4.606;2022-07-21T07:08:02;101150.56;;;17.48;63.83
68822;BME280;55834;50.870;4.606;2022-07-21T07:10:28;101157.19;;;17.58;63.52
68822;BME280;55834;50.870;4.606;2022-07-21T07:12:54;101159.53;;;17.64;62.70
68822;BME280;55834;50.870;4.606;2022-07-21T07:15:20;101155.75;;;17.68;63.02
68822;BME280;55834;50.870;4.606;2022-07-21T07:17:45;101162.75;;;17.53;63.67
68822;BME280;55834;50.870;4.606;2022-07-21T07:20:11;101160.41;;;17.65;63.24
68822;BME280;55834;50.870;4.606;2022-07-21T07:22:36;101160.09;;;17.53;63.62
68822;BME280;55834;50.870;4.606;2022-07-21T07:25:02;101166.31;;;17.54;64.24
68822;BME280;55834;50.870;4.606;2022-07-21T07:27:28;101167.53;;;17.47;64.27
68822;BME280;55834;50.870;4.606;2022-07-21T07:29:53;101164.34;;;17.40;64.85
68822;BME280;55834;50.870;4.606;2022-07-21T07:32:18;101163.72;;;17.52;64.54
68822;BME280;55834;50.870;4.606;2022-07-21T07:34:44;101159.88;;;17.75;63.17
68822;BME280;55834;50.870;4.606;2022-07-21T07:37:09;101163.75;;;17.33;64.42
68822;BME280;55834;50.870;4.606;2022-07-21T07:39:35;101164.03;;;17.64;63.55
68822;BME280;55834;50.870;4.606;2022-07-21T07:42:03;101166.16;;;17.40;64.43
68822;BME280;55834;50.870;4.606;2022-07-21T07:44:28;101165.09;;;17.42;64.21
68822;BME280;55834;50.870;4.606;2022-07-21T07:46:54;101166.16;;;17.74;63.80
68822;BME280;55834;50.870;4.606;2022-07-21T07:49:19;101167.78;;;17.59;63.19
68822;BME280;55834;50.870;4.606;2022-07-21T07:51:45;101171.19;;;17.63;64.48
68822;BME280;55834;50.870;4.606;2022-07-21T07:54:10;101174.72;;;17.81;63.84
68822;BME280;55834;50.870;4.606;2022-07-21T07:56:36;101170.19;;;17.83;64.13
68822;BME280;55834;50.870;4.606;2022-07-21T07:59:01;101174.88;;;17.61;64.57
68822;BME280;55834;50.870;4.606;2022-07-21T08:01:26;101176.59;;;17.96;63.34
68822;BME280;55834;50.870;4.606;2022-07-21T08:03:52;101179.72;;;17.35;64.47
68822;BME280;55834;50.870;4.606;2022-07-21T08:06:17;101178.56;;;17.93;63.24
68822;BME280;55834;50.870;4.606;2022-07-21T08:08:42;101178.72;;;18.23;63.02
68822;BME280;55834;50.870;4.606;2022-07-21T08:11:08;101179.03;;;18.01;63.13
68822;BME280;55834;50.870;4.606;2022-07-21T08:13:35;101178.53;;;18.10;62.64
68822;BME280;55834;50.870;4.606;2022-07-21T08:16:01;101185.31;;;17.83;63.23
68822;BME280;55834;50.870;4.606;2022-07-21T08:18:27;101183.03;;;17.57;65.07
68822;BME280;55834;50.870;4.606;2022-07-21T08:20:52;101181.69;;;17.66;65.14
68822;BME280;55834;50.870;4.606;2022-07-21T08:23:18;101181.22;;;17.41;65.97
68822;BME280;55834;50.870;4.606;2022-07-21T08:25:43;101187.25;;;17.44;65.52
68822;BME280;55834;50.870;4.606;2022-07-21T08:28:09;101182.72;;;17.64;65.43
68822;BME280;55834;50.870;4.606;2022-07-21T08:30:35;101182.41;;;17.70;65.38
68822;BME280;55834;50.870;4.606;2022-07-21T08:33:01;101181.56;;;17.87;64.34
68822;BME280;55834;50.870;4.606;2022-07-21T08:35:27;101180.69;;;17.69;64.81
68822;BME280;55834;50.870;4.606;2022-07-21T08:40:22;101190.53;;;17.86;64.82
68822;BME280;55834;50.870;4.606;2022-07-21T08:42:48;101197.81;;;17.99;64.68
68822;BME280;55834;50.870;4.606;2022-07-21T08:45:14;101194.53;;;18.28;63.19
68822;BME280;55834;50.870;4.606;2022-07-21T08:47:40;101195.75;;;17.52;65.37
68822;BME280;55834;50.870;4.606;2022-07-21T08:50:07;101206.59;;;17.67;65.25
68822;BME280;55834;50.870;4.606;2022-07-21T08:52:33;101194.06;;;17.86;64.92
68822;BME280;55834;50.870;4.606;2022-07-21T08:54:59;101205.16;;;18.29;63.89
68822;BME280;55834;50.870;4.606;2022-07-21T08:57:25;101206.84;;;17.79;64.75
68822;BME280;55834;50.870;4.606;2022-07-21T08:59:50;101205.50;;;17.88;64.55
68822;BME280;55834;50.870;4.606;2022-07-21T09:02:30;101201.06;;;18.22;63.91
68822;BME280;55834;50.870;4.606;2022-07-21T09:04:57;101193.19;;;18.36;62.87
68822;BME280;55834;50.870;4.606;2022-07-21T09:07:22;101199.72;;;17.80;64.36
68822;BME280;55834;50.870;4.606;2022-07-21T09:10:15;101205.56;;;17.69;65.12
68822;BME280;55834;50.870;4.606;2022-07-21T09:12:52;101210.63;;;17.93;64.33
68822;BME280;55834;50.870;4.606;2022-07-21T09:15:19;101210.75;;;17.19;65.58
68822;BME280;55834;50.870;4.606;2022-07-21T09:17:45;101214.78;;;17.45;66.89
68822;BME280;55834;50.870;4.606;2022-07-21T09:20:22;101221.94;;;16.89;66.66
68822;BME280;55834;50.870;4.606;2022-07-21T09:23:05;101221.22;;;16.85;67.25
68822;BME280;55834;50.870;4.606;2022-07-21T09:25:57;101217.38;;;17.10;67.88
68822;BME280;55834;50.870;4.606;2022-07-21T09:28:26;101224.09;;;16.81;67.70
68822;BME280;55834;50.870;4.606;2022-07-21T09:31:11;101229.28;;;16.26;70.27
68822;BME280;55834;50.870;4.606;2022-07-21T09:33:42;101227.41;;;16.86;69.24
68822;BME280;55834;50.870;4.606;2022-07-21T09:38:43;101236.72;;;16.96;67.11
68822;BME280;55834;50.870;4.606;2022-07-21T09:41:23;101233.03;;;17.18;66.93
68822;BME280;55834;50.870;4.606;2022-07-21T09:43:49;101232.44;;;17.66;64.50
68822;BME280;55834;50.870;4.606;2022-07-21T09:46:21;101233.84;;;17.01;65.41
68822;BME280;55834;50.870;4.606;2022-07-21T09:48:53;101235.03;;;16.56;68.05
68822;BME280;55834;50.870;4.606;2022-07-21T09:53:54;101237.28;;;16.65;66.75
68822;BME280;55834;50.870;4.606;2022-07-21T09:56:21;101246.31;;;17.19;65.90
68822;BME280;55834;50.870;4.606;2022-07-21T09:58:48;101243.16;;;17.65;64.56
68822;BME280;55834;50.870;4.606;2022-07-21T10:01:14;101256.66;;;17.44;65.07
68822;BME280;55834;50.870;4.606;2022-07-21T10:03:45;101250.69;;;17.56;64.71
68822;BME280;55834;50.870;4.606;2022-07-21T10:06:11;101258.88;;;17.17;65.18
68822;BME280;55834;50.870;4.606;2022-07-21T10:08:37;101255.03;;;17.59;64.46
68822;BME280;55834;50.870;4.606;2022-07-21T10:11:04;101262.47;;;17.52;63.19
68822;BME280;55834;50.870;4.606;2022-07-21T10:13:30;101261.72;;;17.12;65.17
68822;BME280;55834;50.870;4.606;2022-07-21T10:15:57;101262.06;;;16.86;65.84
68822;BME280;55834;50.870;4.606;2022-07-21T10:18:32;101261.03;;;16.69;66.76
68822;BME280;55834;50.870;4.606;2022-07-21T10:21:08;101261.28;;;17.22;65.12
68822;BME280;55834;50.870;4.606;2022-07-21T10:23:41;101269.66;;;17.33;65.48
68822;BME280;55834;50.870;4.606;2022-07-21T10:26:08;101265.41;;;17.65;64.09
68822;BME280;55834;50.870;4.606;2022-07-21T10:28:33;101274.34;;;17.64;62.47
68822;BME280;55834;50.870;4.606;2022-07-21T10:30:59;101271.91;;;17.59;63.03
68822;BME280;55834;50.870;4.606;2022-07-21T10:36:08;101277.75;;;17.12;64.45
68822;BME280;55834;50.870;4.606;2022-07-21T10:38:35;101286.84;;;16.69;65.42
68822;BME280;55834;50.870;4.606;2022-07-21T10:41:03;101281.63;;;16.47;66.20
68822;BME280;55834;50.870;4.606;2022-07-21T10:45:56;101288.06;;;16.62;64.92
68822;BME280;55834;50.870;4.606;2022-07-21T10:51:06;101290.94;;;17.34;63.34
68822;BME280;55834;50.870;4.606;2022-07-21T10:53:32;101289.78;;;17.21;63.70
68822;BME280;55834;50.870;4.606;2022-07-21T10:55:57;101296.69;;;16.28;66.44
68822;BME280;55834;50.870;4.606;2022-07-21T11:01:19;101288.41;;;16.54;66.01
68822;BME280;55834;50.870;4.606;2022-07-21T11:03:45;101300.66;;;16.38;66.65
68822;BME280;55834;50.870;4.606;2022-07-21T11:06:26;101302.81;;;16.50;66.80
68822;BME280;55834;50.870;4.606;2022-07-21T11:09:04;101295.91;;;17.23;63.69
68822;BME280;55834;50.870;4.606;2022-07-21T11:11:33;101302.13;;;17.05;63.41
68822;BME280;55834;50.870;4.606;2022-07-21T11:22:02;101310.81;;;16.30;66.09
68822;BME280;55834;50.870;4.606;2022-07-21T11:24:28;101306.81;;;17.38;65.61
68822;BME280;55834;50.870;4.606;2022-07-21T11:27:05;101315.56;;;17.58;62.89
68822;BME280;55834;50.870;4.606;2022-07-21T11:29:35;101314.81;;;18.10;62.97
68822;BME280;55834;50.870;4.606;2022-07-21T11:32:02;101321.53;;;17.83;62.60
68822;BME280;55834;50.870;4.606;2022-07-21T11:34:54;101318.94;;;17.62;62.15
68822;BME280;55834;50.870;4.606;2022-07-21T11:37:39;101312.28;;;17.71;61.83
68822;BME280;55834;50.870;4.606;2022-07-21T11:40:13;101309.63;;;18.24;60.96
68822;BME280;55834;50.870;4.606;2022-07-21T11:42:40;101314.97;;;18.59;60.74
68822;BME280;55834;50.870;4.606;2022-07-21T11:45:08;101308.13;;;18.19;59.92
68822;BME280;55834;50.870;4.606;2022-07-21T11:47:34;101309.59;;;17.53;61.60
68822;BME280;55834;50.870;4.606;2022-07-21T11:50:01;101313.97;;;18.10;61.28
68822;BME280;55834;50.870;4.606;2022-07-21T11:52:30;101322.03;;;18.43;60.03
68822;BME280;55834;50.870;4.606;2022-07-21T11:54:56;101319.13;;;18.30;60.20
68822;BME280;55834;50.870;4.606;2022-07-21T11:57:23;101324.97;;;17.29;61.95
68822;BME280;55834;50.870;4.606;2022-07-21T11:59:50;101328.50;;;17.30;63.49
68822;BME280;55834;50.870;4.606;2022-07-21T12:02:21;101327.91;;;17.04;63.94
68822;BME280;55834;50.870;4.606;2022-07-21T12:04:49;101322.75;;;17.20;62.48
68822;BME280;55834;50.870;4.606;2022-07-21T12:07:28;101341.50;;;15.96;66.43
68822;BME280;55834;50.870;4.606;2022-07-21T12:15:33;101335.53;;;17.13;62.56
68822;BME280;55834;50.870;4.606;2022-07-21T12:18:07;101338.53;;;17.06;62.26
68822;BME280;55834;50.870;4.606;2022-07-21T12:20:37;101344.06;;;16.81;63.41
68822;BME280;55834;50.870;4.606;2022-07-21T12:23:19;101339.91;;;16.55;64.68
68822;BME280;55834;50.870;4.606;2022-07-21T12:25:45;101347.63;;;17.02;63.53
68822;BME280;55834;50.870;4.606;2022-07-21T12:28:11;101352.19;;;17.38;62.21
68822;BME280;55834;50.870;4.606;2022-07-21T12:30:50;101366.28;;;16.20;65.24
68822;BME280;55834;50.870;4.606;2022-07-21T12:33:19;101361.81;;;16.41;64.76
68822;BME280;55834;50.870;4.606;2022-07-21T12:36:01;101363.03;;;16.34;66.92
68822;BME280;55834;50.870;4.606;2022-07-21T12:41:03;101361.88;;;16.80;64.37
68822;BME280;55834;50.870;4.606;2022-07-21T12:43:29;101355.69;;;17.76;61.70
68822;BME280;55834;50.870;4.606;2022-07-21T12:46:01;101368.31;;;17.53;61.88
68822;BME280;55834;50.870;4.606;2022-07-21T12:48:33;101361.69;;;16.85;63.12
68822;BME280;55834;50.870;4.606;2022-07-21T12:51:10;101362.13;;;17.34;61.99
68822;BME280;55834;50.870;4.606;2022-07-21T12:53:42;101372.97;;;16.71;63.43
68822;BME280;55834;50.870;4.606;2022-07-21T12:56:09;101379.69;;;16.18;64.90
68822;BME280;55834;50.870;4.606;2022-07-21T12:58:36;101367.25;;;17.20;62.42
68822;BME280;55834;50.870;4.606;2022-07-21T13:01:02;101373.66;;;16.95;64.25
68822;BME280;55834;50.870;4.606;2022-07-21T13:03:29;101380.00;;;16.31;65.34
68822;BME280;55834;50.870;4.606;2022-07-21T13:05:54;101379.22;;;17.30;63.18
68822;BME280;55834;50.870;4.606;2022-07-21T13:08:19;101372.22;;;16.88;64.15
68822;BME280;55834;50.870;4.606;2022-07-21T13:10:45;101376.69;;;17.08;64.50
68822;BME280;55834;50.870;4.606;2022-07-21T13:13:10;101385.13;;;17.18;64.02
68822;BME280;55834;50.870;4.606;2022-07-21T13:15:35;101379.75;;;17.57;62.29
68822;BME280;55834;50.870;4.606;2022-07-21T13:18:01;101393.28;;;17.90;61.87
68822;BME280;55834;50.870;4.606;2022-07-21T13:20:26;101391.13;;;17.42;62.80
68822;BME280;55834;50.870;4.606;2022-07-21T13:22:52;101396.16;;;16.69;65.51
68822;BME280;55834;50.870;4.606;2022-07-21T13:25:17;101391.22;;;16.80;65.31